Time;durP1;ratioP1;P1;durP2;ratioP2;P2;SDS_P1;SDS_P2;PMS_P1;PMS_P2;Temp;Humidity;BMP_temperature;BMP_pressure;BME280_temperature;BME280_humidity;BME280_pressure;Samples;Min_cycle;Max_cycle;Signal;HPM_P1;HPM_P2
2022/10/14 00:00:38;;;;;;;47.17;30.48;;;;;;;11.71;100.00;101535.31;5053448;28;20049;-74
2022/10/14 00:03:03;;;;;;;42.85;29.70;;;;;;;11.66;100.00;101530.38;5053562;28;20086;-73
2022/10/14 00:05:28;;;;;;;43.35;28.88;;;;;;;11.72;100.00;101540.38;5035570;28;20498;-79
2022/10/14 00:07:54;;;;;;;44.88;29.83;;;;;;;11.75;100.00;101540.19;5053330;28;20032;-76
2022/10/14 00:10:19;;;;;;;45.50;30.98;;;;;;;11.76;100.00;101533.28;5053374;28;20029;-77
2022/10/14 00:12:46;;;;;;;44.97;28.98;;;;;;;11.64;100.00;101514.09;5053066;28;20021;-75
2022/10/14 00:15:12;;;;;;;40.95;28.05;;;;;;;11.72;100.00;101524.03;5053212;28;20075;-74
2022/10/14 00:17:37;;;;;;;42.95;29.58;;;;;;;11.81;100.00;101539.06;5052921;28;20589;-79
2022/10/14 00:20:03;;;;;;;37.47;27.17;;;;;;;11.82;100.00;101545.06;5052742;28;20108;-73
2022/10/14 00:22:28;;;;;;;42.05;29.20;;;;;;;11.82;100.00;101545.91;5053309;28;20021;-79
2022/10/14 00:24:54;;;;;;;36.47;26.23;;;;;;;11.84;100.00;101540.63;5052938;28;20031;-78
2022/10/14 00:27:19;;;;;;;40.17;28.27;;;;;;;11.81;100.00;101539.06;5052979;28;20028;-75
2022/10/14 00:29:44;;;;;;;41.05;27.65;;;;;;;11.87;100.00;101545.63;5053029;28;20044;-80
2022/10/14 00:32:10;;;;;;;39.55;28.27;;;;;;;11.83;100.00;101533.78;5052960;28;20075;-80
2022/10/14 00:34:35;;;;;;;37.47;26.80;;;;;;;11.87;100.00;101532.69;5034775;28;20037;-80
2022/10/14 00:37:00;;;;;;;37.95;27.85;;;;;;;11.78;100.00;101521.91;5052996;28;20116;-74
2022/10/14 00:39:26;;;;;;;42.13;27.23;;;;;;;11.88;100.00;101535.19;5052817;28;20457;-79
2022/10/14 00:41:51;;;;;;;41.40;29.67;;;;;;;11.67;100.00;101488.06;5052773;28;20040;-79
2022/10/14 00:44:16;;;;;;;45.38;30.08;;;;;;;11.91;100.00;101519.50;5052989;28;20112;-73
2022/10/14 00:46:47;;;;;;;39.25;29.60;;;;;;;11.89;100.00;101518.72;5052797;28;20029;-79
2022/10/14 00:49:30;;;;;;;41.67;29.05;;;;;;;11.91;100.00;101516.09;5053065;28;20444;-79
2022/10/14 00:52:00;;;;;;;44.38;29.33;;;;;;;11.88;100.00;101509.31;5052686;28;20115;-79
2022/10/14 00:54:31;;;;;;;44.58;29.50;;;;;;;11.88;100.00;101498.94;5052936;28;20101;-74
2022/10/14 00:56:56;;;;;;;40.40;30.27;;;;;;;11.96;100.00;101516.63;5052607;28;20365;-78
2022/10/14 00:59:22;;;;;;;40.78;28.13;;;;;;;11.90;100.00;101496.31;5052683;28;20031;-79
2022/10/14 01:01:47;;;;;;;39.90;28.77;;;;;;;11.87;100.00;101497.28;5052900;28;20013;-79
2022/10/14 01:04:12;;;;;;;44.88;29.40;;;;;;;11.95;100.00;101504.63;5052745;28;20112;-78
2022/10/14 01:07:01;;;;;;;44.30;29.55;;;;;;;11.94;100.00;101501.19;5052831;28;20090;-77
2022/10/14 01:09:37;;;;;;;45.17;31.15;;;;;;;11.83;100.00;101482.03;5052889;28;20103;-79
2022/10/14 01:12:40;;;;;;;40.97;28.90;;;;;;;11.98;100.00;101504.44;5052514;28;20431;-79
2022/10/14 01:15:05;;;;;;;39.10;29.55;;;;;;;11.97;100.00;101489.81;5052571;28;20128;-78
2022/10/14 01:18:00;;;;;;;40.58;29.52;;;;;;;11.97;100.00;101484.66;5052216;28;20059;-78
2022/10/14 01:20:48;;;;;;;37.22;27.98;;;;;;;11.97;100.00;101488.06;5052519;28;20021;-74
2022/10/14 01:23:25;;;;;;;39.80;30.13;;;;;;;11.98;100.00;101481.13;5052729;28;20021;-79
2022/10/14 01:26:05;;;;;;;40.22;29.70;;;;;;;11.98;100.00;101479.38;5052651;28;20079;-78
2022/10/14 01:28:49;;;;;;;40.70;27.92;;;;;;;11.95;100.00;101458.03;5052478;28;20104;-77
2022/10/14 01:31:20;;;;;;;44.72;30.73;;;;;;;11.96;100.00;101449.34;5054444;28;20044;-77
2022/10/14 01:33:51;;;;;;;42.08;30.00;;;;;;;11.95;100.00;101434.75;5056534;28;20032;-79
2022/10/14 01:36:35;;;;;;;;;;;;;;;12.04;100.00;101442.78;5038260;28;20037;-78
2022/10/14 01:39:10;;;;;;;40.55;29.17;;;;;;;11.99;100.00;101439.63;5056263;28;19920;-78
2022/10/14 01:41:39;;;;;;;39.33;30.25;;;;;;;12.00;100.00;101440.50;5048948;28;20029;-78
2022/10/14 01:44:10;;;;;;;41.33;29.95;;;;;;;11.99;100.00;101439.63;5056021;28;20033;-72
2022/10/14 01:46:38;;;;;;;41.35;30.65;;;;;;;11.63;100.00;101377.09;5056276;28;20017;-79
2022/10/14 01:49:11;;;;;;;40.42;30.20;;;;;;;11.88;100.00;101417.91;5055874;28;20384;-79
2022/10/14 01:52:04;;;;;;;45.28;31.13;;;;;;;11.93;100.00;101426.25;5055984;28;20115;-74
2022/10/14 01:54:36;;;;;;;40.78;30.50;;;;;;;11.91;100.00;101431.50;5055955;28;20028;-78
2022/10/14 01:57:07;;;;;;;45.10;29.55;;;;;;;11.87;100.00;101429.16;5055990;28;20063;-79
2022/10/14 01:59:35;;;;;;;38.28;28.92;;;;;;;11.80;100.00;101422.69;5055876;28;20061;-78
2022/10/14 02:02:00;;;;;;;36.35;28.65;;;;;;;11.89;100.00;101432.50;5055856;28;20499;-75
2022/10/14 02:04:26;;;;;;;42.85;29.92;;;;;;;11.85;100.00;101425.84;5055596;28;20053;-79
2022/10/14 02:07:07;;;;;;;36.72;28.52;;;;;;;11.86;100.00;101424.91;5055713;28;20036;-80
2022/10/14 02:09:53;;;;;;;37.20;26.88;;;;;;;11.92;100.00;101427.16;5055775;28;20025;-79
2022/10/14 02:12:24;;;;;;;41.80;27.55;;;;;;;11.91;100.00;101420.31;5055596;28;20440;-74
2022/10/14 02:14:52;;;;;;;36.97;26.95;;;;;;;11.91;100.00;101423.75;5055437;28;20028;-78
2022/10/14 02:17:32;;;;;;;38.78;26.98;;;;;;;11.92;100.00;101428.00;5055001;28;20057;-78
2022/10/14 02:20:07;;;;;;;37.03;26.48;;;;;;;11.85;100.00;101418.09;5055446;28;20025;-79
2022/10/14 02:22:43;;;;;;;38.25;27.80;;;;;;;11.88;100.00;101425.66;5055360;28;20028;-74
2022/10/14 02:25:17;;;;;;;38.97;27.88;;;;;;;11.81;100.00;101408.84;5055425;28;20362;-78
2022/10/14 02:27:45;;;;;;;38.80;28.23;;;;;;;11.87;100.00;101422.25;5055193;28;20047;-76
2022/10/14 02:30:11;;;;;;;42.60;28.05;;;;;;;11.87;100.00;101422.25;5055129;28;20068;-75
2022/10/14 02:32:38;;;;;;;38.10;27.55;;;;;;;11.80;100.00;101407.16;5055230;28;20055;-75
2022/10/14 02:35:08;;;;;;;39.50;26.83;;;;;;;11.86;100.00;101414.56;5055184;28;20415;-79
2022/10/14 02:37:35;;;;;;;40.78;27.77;;;;;;;11.87;100.00;101418.81;5055129;28;20560;-75
2022/10/14 02:40:15;;;;;;;34.65;24.92;;;;;;;11.89;100.00;101422.97;5055145;28;20052;-74
2022/10/14 02:42:41;;;;;;;40.30;26.35;;;;;;;11.84;100.00;101411.25;5054726;28;20025;-79
2022/10/14 02:45:08;;;;;;;41.17;26.50;;;;;;;11.78;100.00;101405.47;5054618;28;20025;-74
2022/10/14 02:47:34;;;;;;;39.50;26.85;;;;;;;11.90;100.00;101418.66;5055282;28;20353;-80
2022/10/14 02:49:59;;;;;;;40.10;26.25;;;;;;;11.90;100.00;101414.31;5054967;28;20051;-76
2022/10/14 02:52:25;;;;;;;37.35;25.45;;;;;;;11.90;100.00;101403.97;5036667;28;20033;-74
2022/10/14 02:54:50;;;;;;;37.92;25.60;;;;;;;11.90;100.00;101409.13;5037058;28;20025;-74
2022/10/14 02:57:15;;;;;;;38.20;26.38;;;;;;;11.90;100.00;101403.13;5054609;28;20024;-79
2022/10/14 02:59:41;;;;;;;38.13;25.52;;;;;;;11.72;100.00;101374.78;5054716;28;20021;-75
2022/10/14 03:02:07;;;;;;;36.00;25.55;;;;;;;11.91;100.00;101397.03;5055005;28;20067;-75
2022/10/14 03:04:33;;;;;;;36.40;24.58;;;;;;;11.91;100.00;101395.28;5054798;28;20021;-80
2022/10/14 03:06:59;;;;;;;36.33;24.17;;;;;;;11.77;100.00;101371.91;5054691;28;20029;-74
2022/10/14 03:09:24;;;;;;;35.25;23.52;;;;;;;11.70;100.00;101349.91;5054594;28;20047;-75
2022/10/14 03:11:49;;;;;;;39.25;24.83;;;;;;;11.95;100.00;101385.56;5054341;28;20087;-79
2022/10/14 03:14:15;;;;;;;33.60;23.58;;;;;;;11.94;100.00;101382.13;5054322;28;20426;-74
2022/10/14 03:16:40;;;;;;;33.67;23.70;;;;;;;11.80;100.00;101355.41;5054501;28;20484;-79
2022/10/14 03:19:05;;;;;;;34.10;24.20;;;;;;;11.81;100.00;101357.09;5054215;28;20048;-78
2022/10/14 03:21:30;;;;;;;40.03;23.92;;;;;;;11.98;100.00;101377.59;5036677;28;20071;-74
2022/10/14 03:23:56;;;;;;;33.90;23.27;;;;;;;11.99;100.00;101374.91;5054408;28;20416;-74
2022/10/14 03:26:22;;;;;;;37.25;23.50;;;;;;;11.99;100.00;101376.69;5054166;28;20033;-79
2022/10/14 03:28:48;;;;;;;36.10;24.35;;;;;;;11.99;100.00;101377.50;5054169;28;20029;-74
2022/10/14 03:31:13;;;;;;;37.65;23.40;;;;;;;11.88;100.00;101353.19;5054134;28;20377;-73
2022/10/14 03:33:38;;;;;;;40.55;23.30;;;;;;;11.92;100.00;101357.28;5054133;28;20460;-79
2022/10/14 03:36:05;;;;;;;36.05;22.85;;;;;;;12.02;100.00;101368.75;5054095;28;20072;-74
2022/10/14 03:38:30;;;;;;;35.75;22.70;;;;;;;12.02;100.00;101367.00;5054032;28;20100;-78
2022/10/14 03:40:56;;;;;;;37.05;22.77;;;;;;;12.00;100.00;101363.66;5053965;28;20028;-74
2022/10/14 03:43:21;;;;;;;33.92;23.48;;;;;;;12.03;100.00;101366.06;5035416;28;20041;-74
2022/10/14 03:45:47;;;;;;;38.22;22.85;;;;;;;12.03;100.00;101360.06;5053763;28;20021;-79
2022/10/14 03:48:12;;;;;;;34.13;22.27;;;;;;;12.03;100.00;101357.47;5053865;28;20067;-75
2022/10/14 03:50:37;;;;;;;35.10;23.13;;;;;;;11.86;100.00;101332.59;5053866;28;20116;-74
2022/10/14 03:53:03;;;;;;;38.00;22.88;;;;;;;12.03;100.00;101347.13;5052973;28;20047;-75
2022/10/14 03:55:28;;;;;;;36.67;22.85;;;;;;;11.99;100.00;101350.78;5053716;28;20025;-76
2022/10/14 03:57:54;;;;;;;34.65;22.05;;;;;;;12.02;100.00;101343.69;5035699;28;20029;-78
2022/10/14 04:00:20;;;;;;;33.78;23.20;;;;;;;11.88;100.00;101328.16;5053511;28;20028;-75
2022/10/14 04:02:45;;;;;;;38.58;23.52;;;;;;;12.04;100.00;101351.34;5053787;28;20094;-79
2022/10/14 04:05:10;;;;;;;35.67;23.23;;;;;;;11.94;100.00;101325.19;5053636;28;20513;-80
2022/10/14 04:07:36;;;;;;;36.40;23.60;;;;;;;12.02;100.00;101335.94;5053580;28;20435;-74
2022/10/14 04:10:02;;;;;;;34.40;23.73;;;;;;;11.99;100.00;101325.75;5053436;28;20029;-76
2022/10/14 04:12:27;;;;;;;34.67;23.90;;;;;;;12.04;100.00;101333.25;5053528;28;20457;-79
2022/10/14 04:14:55;;;;;;;34.63;22.80;;;;;;;12.06;100.00;101333.97;5053332;28;20025;-74
2022/10/14 04:17:21;;;;;;;33.40;22.55;;;;;;;12.05;100.00;101327.13;5052972;28;20072;-78
2022/10/14 04:19:46;;;;;;;36.53;22.73;;;;;;;12.05;100.00;101335.72;5053384;28;20056;-79
2022/10/14 04:22:11;;;;;;;35.20;23.20;;;;;;;12.01;100.00;101326.50;5053363;28;20021;-79
2022/10/14 04:24:37;;;;;;;30.55;20.42;;;;;;;11.99;100.00;101323.16;5034938;28;20496;-75
2022/10/14 04:27:02;;;;;;;33.95;22.15;;;;;;;11.91;100.00;101301.28;5053250;28;20468;-79
2022/10/14 04:29:27;;;;;;;34.58;21.63;;;;;;;12.09;100.00;101323.41;5053069;28;20028;-76
2022/10/14 04:31:53;;;;;;;31.55;20.85;;;;;;;12.10;100.00;101322.53;5053109;28;20024;-73
2022/10/14 04:34:18;;;;;;;33.45;22.08;;;;;;;12.02;100.00;101309.22;5034777;28;20936;-78
2022/10/14 04:36:44;;;;;;;32.28;22.23;;;;;;;12.06;100.00;101315.84;5053049;28;20036;-79
2022/10/14 04:39:09;;;;;;;32.88;20.90;;;;;;;12.01;100.00;101300.63;5052907;28;20477;-79
2022/10/14 04:41:35;;;;;;;29.50;20.00;;;;;;;11.97;100.00;101299.13;5053047;28;20033;-74
2022/10/14 04:44:00;;;;;;;30.30;20.77;;;;;;;12.01;100.00;101302.38;5053076;28;20032;-75
2022/10/14 04:46:25;;;;;;;29.63;19.73;;;;;;;12.04;100.00;101310.78;5052743;28;20021;-74
2022/10/14 04:48:51;;;;;;;29.15;20.52;;;;;;;12.03;100.00;101310.88;5053157;28;20113;-74
2022/10/14 04:51:16;;;;;;;32.55;20.65;;;;;;;12.06;100.00;101318.44;5052915;28;20048;-78
2022/10/14 04:53:41;;;;;;;27.67;20.10;;;;;;;12.06;100.00;101308.91;5053050;28;20048;-74
2022/10/14 04:56:07;;;;;;;30.48;21.13;;;;;;;12.06;100.00;101305.50;5035026;28;20020;-78
2022/10/14 04:58:32;;;;;;;28.80;19.80;;;;;;;12.07;100.00;101299.38;5052848;28;20115;-74
2022/10/14 05:00:57;;;;;;;27.48;18.88;;;;;;;11.87;100.00;101268.72;5052553;28;20086;-76
2022/10/14 05:03:23;;;;;;;26.83;19.25;;;;;;;11.86;100.00;101262.72;5053063;28;20376;-78
2022/10/14 05:05:49;;;;;;;27.60;20.08;;;;;;;11.88;100.00;101257.44;5055885;28;20480;-75
2022/10/14 05:08:15;;;;;;;28.13;18.85;;;;;;;12.09;100.00;101288.94;5057018;28;20021;-80
2022/10/14 05:10:40;;;;;;;26.80;18.90;;;;;;;11.89;100.00;101252.16;5056882;28;20112;-78
2022/10/14 05:13:06;;;;;;;27.63;17.95;;;;;;;11.96;100.00;101260.41;5057141;28;20075;-74
2022/10/14 05:15:32;;;;;;;26.20;18.48;;;;;;;12.08;100.00;101282.94;5057032;28;20021;-73
2022/10/14 05:17:57;;;;;;;26.10;17.83;;;;;;;11.96;100.00;101269.00;5056068;28;20059;-79
2022/10/14 05:20:22;;;;;;;24.85;17.55;;;;;;;12.10;100.00;101286.28;5076144;28;20107;-78
2022/10/14 05:22:48;;;;;;;23.50;17.75;;;;;;;12.03;100.00;101272.03;5077019;28;20108;-81
2022/10/14 05:25:13;;;;;;;24.63;17.35;;;;;;;12.01;100.00;101258.38;5076636;28;20107;-79
2022/10/14 05:27:39;;;;;;;23.38;17.17;;;;;;;12.12;100.00;101273.22;5041553;28;20037;-80
2022/10/14 05:30:05;;;;;;;22.02;17.13;;;;;;;12.06;100.00;101258.91;5076628;28;20028;-77
2022/10/14 05:32:30;;;;;;;24.05;16.80;;;;;;;12.12;100.00;101263.72;5057329;28;20117;-79
2022/10/14 05:34:56;;;;;;;24.90;17.67;;;;;;;12.12;100.00;101258.53;5076401;28;20464;-80
2022/10/14 05:37:21;;;;;;;26.20;17.58;;;;;;;12.11;100.00;101253.44;5076324;28;20464;-79
2022/10/14 05:39:46;;;;;;;23.30;16.95;;;;;;;11.96;100.00;101227.59;5076621;28;20067;-79
2022/10/14 05:42:11;;;;;;;22.00;16.23;;;;;;;11.95;100.00;101227.69;5076450;28;20029;-80
2022/10/14 05:44:37;;;;;;;26.45;16.95;;;;;;;12.07;100.00;101239.84;5076587;28;20025;-79
2022/10/14 05:47:02;;;;;;;21.55;15.63;;;;;;;11.99;100.00;101227.38;5076039;28;20090;-79
2022/10/14 05:49:27;;;;;;;21.98;17.08;;;;;;;12.11;100.00;101243.94;5058211;28;20040;-75
2022/10/14 05:51:53;;;;;;;21.98;16.35;;;;;;;11.95;100.00;101214.75;5076339;28;20065;-79
2022/10/14 05:54:18;;;;;;;22.60;16.58;;;;;;;12.11;100.00;101237.91;5076312;28;20028;-75
2022/10/14 05:56:43;;;;;;;21.33;15.65;;;;;;;12.10;100.00;101234.50;5076143;28;20472;-79
2022/10/14 05:59:09;;;;;;;24.13;16.13;;;;;;;12.01;100.00;101222.97;5076036;28;20103;-77
2022/10/14 06:01:36;;;;;;;21.48;15.38;;;;;;;12.11;100.00;101232.75;5076026;28;20031;-77
2022/10/14 06:04:02;;;;;;;20.77;15.45;;;;;;;12.15;100.00;101234.19;5058052;28;20086;-79
2022/10/14 06:06:28;;;;;;;20.50;14.43;;;;;;;12.15;100.00;101235.03;5075928;28;20063;-79
2022/10/14 06:08:54;;;;;;;20.38;15.25;;;;;;;12.07;100.00;101224.31;5076073;28;20024;-77
2022/10/14 06:11:19;;;;;;;21.13;14.10;;;;;;;12.00;100.00;101204.94;5075980;28;20478;-76
2022/10/14 06:13:44;;;;;;;22.85;15.88;;;;;;;12.18;100.00;101226.22;5075615;28;20073;-78
2022/10/14 06:16:10;;;;;;;19.50;15.00;;;;;;;12.14;100.00;101225.59;5074678;28;20465;-74
2022/10/14 06:18:36;;;;;;;18.88;14.35;;;;;;;12.21;100.00;101226.06;5075395;28;20044;-79
2022/10/14 06:21:03;;;;;;;19.58;14.95;;;;;;;12.12;100.00;101198.97;5057674;28;20463;-80
2022/10/14 06:23:28;;;;;;;18.38;14.65;;;;;;;12.14;100.00;101210.06;5075642;28;20092;-76
2022/10/14 06:25:54;;;;;;;19.70;14.05;;;;;;;12.28;100.00;101222.13;5057581;28;20123;-77
2022/10/14 06:28:19;;;;;;;19.25;14.43;;;;;;;12.19;100.00;101202.84;5075700;28;20105;-79
2022/10/14 06:30:52;;;;;;;20.33;14.93;;;;;;;12.30;100.00;101223.72;5075461;28;20460;-75
2022/10/14 06:33:18;;;;;;;19.25;13.73;;;;;;;12.34;100.00;101221.75;5075319;28;20085;-80
2022/10/14 06:35:43;;;;;;;23.98;15.80;;;;;;;12.21;100.00;101195.81;5075219;28;20032;-78
2022/10/14 06:38:09;;;;;;;19.67;14.27;;;;;;;12.39;100.00;101211.06;5075381;28;20082;-75
2022/10/14 06:40:35;;;;;;;18.48;14.10;;;;;;;12.27;100.00;101194.56;5057609;28;20032;-79
2022/10/14 06:43:00;;;;;;;17.45;13.48;;;;;;;12.42;100.00;101219.50;5075399;28;20142;-80
2022/10/14 06:45:25;;;;;;;19.13;13.98;;;;;;;12.44;100.00;101211.63;5074939;28;20452;-75
2022/10/14 06:47:51;;;;;;;18.02;13.75;;;;;;;12.47;100.00;101211.41;5075055;28;20028;-78
2022/10/14 06:50:16;;;;;;;17.35;13.38;;;;;;;12.44;100.00;101209.03;5075024;28;20024;-79
2022/10/14 06:52:44;;;;;;;18.15;13.48;;;;;;;12.49;100.00;101207.00;5075035;28;20052;-74
2022/10/14 06:55:09;;;;;;;17.20;13.55;;;;;;;12.54;100.00;101207.50;5075067;28;20078;-80
2022/10/14 06:57:35;;;;;;;17.38;12.38;;;;;;;12.56;100.00;101203.06;5056896;28;20020;-78
2022/10/14 07:00:00;;;;;;;18.23;13.30;;;;;;;12.58;100.00;101204.59;5074726;28;20372;-74
2022/10/14 07:02:26;;;;;;;16.63;12.68;;;;;;;12.54;100.00;101194.56;5075034;28;20029;-76
2022/10/14 07:04:51;;;;;;;17.85;13.15;;;;;;;12.50;100.00;101175.81;5074608;28;20464;-79
2022/10/14 07:07:16;;;;;;;18.02;13.00;;;;;;;12.61;100.00;101188.06;5074870;28;20037;-78
2022/10/14 07:09:41;;;;;;;17.13;12.60;;;;;;;12.67;100.00;101197.16;5073556;28;20036;-73
2022/10/14 07:12:07;;;;;;;17.35;12.82;;;;;;;12.68;100.00;101194.47;5074872;28;20031;-80
2022/10/14 07:14:32;;;;;;;16.20;12.95;;;;;;;12.42;100.00;101152.16;5075239;28;20063;-82
2022/10/14 07:16:57;;;;;;;17.00;13.45;;;;;;;12.68;100.00;101191.88;5100359;23;20044;-76
2022/10/14 07:19:23;;;;;;;16.63;13.10;;;;;;;12.74;100.00;101196.66;5014583;28;20117;-72
2022/10/14 07:21:48;;;;;;;17.20;12.82;;;;;;;12.62;100.00;101177.59;5014508;28;20025;-78
2022/10/14 07:24:14;;;;;;;17.90;12.65;;;;;;;12.78;100.00;101194.69;5014650;28;20037;-74
2022/10/14 07:26:39;;;;;;;16.63;12.18;;;;;;;12.81;100.00;101200.53;5014560;28;20036;-76
2022/10/14 07:29:05;;;;;;;16.30;12.35;;;;;;;12.70;100.00;101182.25;5013649;28;20033;-84
2022/10/14 07:31:31;;;;;;;17.35;12.75;;;;;;;12.81;100.00;101204.88;5014655;28;20041;-85
2022/10/14 07:33:56;;;;;;;16.00;12.77;;;;;;;12.81;100.00;101210.06;5014505;28;20374;-81
2022/10/14 07:36:22;;;;;;;16.17;12.82;;;;;;;12.75;100.00;101200.91;5014259;28;20029;-83
2022/10/14 07:38:48;;;;;;;17.35;13.48;;;;;;;12.64;100.00;101183.50;5014380;28;20033;-81
2022/10/14 07:41:17;;;;;;;16.92;12.20;;;;;;;12.61;100.00;101162.16;5014150;28;20037;-83
2022/10/14 07:43:44;;;;;;;16.98;13.32;;;;;;;12.85;100.00;101194.19;5014309;28;20437;-73
2022/10/14 07:46:11;;;;;;;15.65;12.38;;;;;;;12.89;100.00;101193.06;5014426;28;20484;-81
2022/10/14 07:48:37;;;;;;;16.90;12.52;;;;;;;12.98;100.00;101206.31;5014217;28;20044;-81
2022/10/14 07:51:04;;;;;;;17.00;12.40;;;;;;;12.86;100.00;101175.09;5014090;28;20033;-82
2022/10/14 07:53:30;;;;;;;16.33;12.18;;;;;;;13.00;100.00;101192.34;5014312;28;20026;-83
2022/10/14 07:55:57;;;;;;;16.00;12.25;;;;;;;12.92;100.00;101171.28;5029192;28;20033;-83
2022/10/14 07:58:27;;;;;;;15.95;12.35;;;;;;;13.01;100.00;101180.22;5013970;28;20068;-80
2022/10/14 08:00:53;;;;;;;16.65;12.93;;;;;;;13.12;100.00;101188.09;5014090;28;20371;-82
2022/10/14 08:03:20;;;;;;;15.75;13.35;;;;;;;13.11;100.00;101183.84;5013970;28;20033;-82
2022/10/14 08:05:49;;;;;;;16.35;12.95;;;;;;;13.18;100.00;101183.34;5013508;28;20533;-72
2022/10/14 08:08:16;;;;;;;15.95;12.05;;;;;;;13.23;100.00;101183.03;5013874;28;20470;-82
2022/10/14 08:10:41;;;;;;;14.45;12.02;;;;;;;13.25;100.00;101186.34;5013928;28;20037;-81
2022/10/14 08:13:06;;;;;;;15.88;11.90;;;;;;;13.26;100.00;101182.81;5014125;28;20026;-78
2022/10/14 08:15:37;;;;;;;13.32;11.43;;;;;;;13.20;100.00;101159.91;5014165;28;20030;-73
2022/10/14 08:18:03;;;;;;;16.50;11.23;;;;;;;13.41;100.00;101189.56;5013528;28;20056;-82
2022/10/14 08:20:29;;;;;;;13.38;10.50;;;;;;;13.43;100.00;101185.09;5013341;28;20161;-82
2022/10/14 08:22:55;;;;;;;14.88;12.13;;;;;;;13.51;100.00;101168.16;5013410;28;20049;-74
2022/10/14 08:25:21;;;;;;;12.85;11.43;;;;;;;13.63;100.00;101175.09;5013880;28;20026;-74
2022/10/14 08:27:52;;;;;;;14.07;11.57;;;;;;;13.64;100.00;101162.00;5013829;28;20029;-82
2022/10/14 08:30:18;;;;;;;14.35;10.90;;;;;;;13.86;100.00;101173.44;5013529;28;20033;-83
2022/10/14 08:32:44;;;;;;;12.30;10.07;;;;;;;13.83;100.00;101134.75;5013519;28;20033;-73
2022/10/14 08:35:10;;;;;;;13.10;9.80;;;;;;;13.98;100.00;101146.63;5013306;28;20049;-81
2022/10/14 08:37:36;;;;;;;14.25;9.50;;;;;;;14.21;100.00;101171.75;5013142;28;20096;-81
2022/10/14 08:40:01;;;;;;;15.27;10.23;;;;;;;14.34;100.00;101177.69;5012961;28;20022;-79
2022/10/14 08:42:53;;;;;;;11.68;9.48;;;;;;;14.45;100.00;101176.13;5013440;28;20105;-82
2022/10/14 08:45:25;;;;;;;;;;;;;;;14.54;100.00;101176.28;5108386;23;20045;-76
2022/10/14 08:47:53;;;;;;;12.32;9.43;;;;;;;13.68;100.00;101048.44;5123507;23;20020;-82
2022/10/14 08:50:29;;;;;;;11.93;9.20;;;;;;;14.34;100.00;101159.50;5032750;28;20038;-76
2022/10/14 08:53:15;;;;;;;10.52;8.07;;;;;;;14.38;100.00;101170.53;5032959;28;20029;-74
2022/10/14 08:56:01;;;;;;;11.25;8.90;;;;;;;14.31;100.00;101153.72;5032979;28;20030;-82
2022/10/14 08:58:39;;;;;;;11.75;9.13;;;;;;;14.33;100.00;101168.25;5015153;28;20043;-88
2022/10/14 09:01:12;;;;;;;11.25;8.45;;;;;;;14.24;100.00;101163.72;5039790;23;20032;-70
2022/10/14 09:03:37;;;;;;;12.30;9.43;;;;;;;14.29;100.00;101182.41;5033030;28;20037;-85
2022/10/14 09:06:09;;;;;;;12.57;9.10;;;;;;;14.28;100.00;101180.75;5032683;28;20029;-87
2022/10/14 09:08:41;;;;;;;11.23;8.93;;;;;;;14.29;100.00;101163.41;5032706;28;20026;-84
2022/10/14 09:11:12;;;;;;;12.63;9.35;;;;;;;14.31;100.00;101172.75;5014931;28;20051;-71
2022/10/14 09:13:41;;;;;;;11.77;9.45;;;;;;;14.18;100.00;101137.41;5032842;28;20487;-86
2022/10/14 09:16:30;;;;;;;12.00;9.13;;;;;;;14.42;100.00;101161.56;5032831;28;20026;-82
2022/10/14 09:19:10;;;;;;;12.13;8.95;;;;;;;14.39;100.00;101150.56;5032688;28;20104;-82
2022/10/14 09:21:52;;;;;;;11.55;9.52;;;;;;;14.54;100.00;101154.66;5032398;28;20033;-76
2022/10/14 09:24:35;;;;;;;11.52;9.30;;;;;;;14.57;100.00;101152.66;5032627;28;20025;-73
2022/10/14 09:27:21;;;;;;;11.88;9.27;;;;;;;14.54;100.00;101133.84;5032757;28;20180;-81
2022/10/14 09:29:56;;;;;;;10.57;9.48;;;;;;;14.57;100.00;101128.44;5032669;28;20026;-79
2022/10/14 09:32:40;;;;;;;10.57;8.52;;;;;;;14.68;100.00;101145.84;5032510;28;20018;-82
2022/10/14 09:35:28;;;;;;;10.60;8.75;;;;;;;14.71;100.00;101141.22;5032542;28;20026;-82
2022/10/14 09:37:54;;;;;;;10.48;9.30;;;;;;;14.70;100.00;101133.56;5032414;28;20029;-80
2022/10/14 09:40:30;;;;;;;11.38;9.05;;;;;;;14.87;100.00;101141.75;5032515;28;20389;-78
2022/10/14 09:43:03;;;;;;;12.18;9.40;;;;;;;14.86;100.00;101134.88;5032663;28;20108;-81
2022/10/14 09:45:45;;;;;;;11.40;9.07;;;;;;;14.88;100.00;101124.38;5032554;28;20474;-83
2022/10/14 09:48:16;;;;;;;11.73;8.88;;;;;;;15.08;100.00;101141.03;5032528;28;20048;-82
2022/10/14 09:50:47;;;;;;;11.10;8.82;;;;;;;15.01;100.00;101111.25;5032260;28;20026;-80
2022/10/14 09:53:17;;;;;;;;;;;;;;;15.30;100.00;101132.41;5036256;28;20021;-83
2022/10/14 09:55:48;;;;;;;10.48;8.60;;;;;;;15.12;100.00;101099.06;5043569;23;19928;-81
2022/10/14 09:58:17;;;;;;;10.60;8.40;;;;;;;15.43;100.00;101135.69;5036260;28;20056;-82
2022/10/14 10:00:44;;;;;;;10.10;9.00;;;;;;;15.49;100.00;101136.03;5035915;28;20095;-76
2022/10/14 10:03:26;;;;;;;12.98;8.23;;;;;;;15.54;100.00;101130.50;5035966;28;20032;-82
2022/10/14 10:06:08;;;;;;;12.25;7.63;;;;;;;15.53;100.00;101128.81;5034485;28;20022;-80
2022/10/14 10:08:37;;;;;;;8.95;7.45;;;;;;;15.47;100.00;101121.50;5036019;28;20415;-79
2022/10/14 10:11:12;;;;;;;10.55;7.80;;;;;;;15.47;100.00;101137.13;5018329;28;20079;-80
2022/10/14 10:13:43;;;;;;;8.32;7.35;;;;;;;15.36;100.00;101122.34;5035762;28;20097;-80
2022/10/14 10:16:26;;;;;;;10.82;8.05;;;;;;;15.36;100.00;101126.72;5035335;28;20053;-72
2022/10/14 10:18:54;;;;;;;11.50;7.82;;;;;;;15.28;100.00;101116.91;5035727;28;20419;-69
2022/10/14 10:21:29;;;;;;;11.80;8.07;;;;;;;15.17;100.00;101096.94;5017693;28;20044;-79
2022/10/14 10:24:00;;;;;;;10.77;7.60;;;;;;;15.20;100.00;101101.06;5035663;28;20437;-77
2022/10/14 10:26:33;;;;;;;11.88;8.18;;;;;;;15.20;100.00;101103.66;5035409;28;20384;-72
2022/10/14 10:29:02;;;;;;;10.30;7.60;;;;;;;15.11;100.00;101096.56;5035239;28;20095;-71
2022/10/14 10:31:42;;;;;;;10.07;7.38;;;;;;;15.16;100.00;101110.91;5029560;23;20088;-80
2022/10/14 10:34:43;;;;;;;10.07;7.50;;;;;;;15.03;100.00;101110.16;5030754;28;20034;-79
2022/10/14 10:37:30;;;;;;;10.20;7.80;;;;;;;14.97;100.00;101107.22;5015334;28;20030;-80
2022/10/14 10:40:09;;;;;;;9.40;7.30;;;;;;;14.88;100.00;101108.75;5015171;28;20481;-79
2022/10/14 10:42:47;;;;;;;9.65;7.50;;;;;;;14.86;100.00;101098.47;5030179;28;20022;-80
2022/10/14 10:45:32;;;;;;;9.45;7.72;;;;;;;14.81;100.00;101097.16;5015300;28;20543;-82
2022/10/14 10:48:12;;;;;;;10.80;8.45;;;;;;;14.76;100.00;101097.53;5015342;28;20037;-80
2022/10/14 10:50:45;;;;;;;10.80;7.95;;;;;;;14.76;100.00;101102.72;5015378;28;20381;-72
2022/10/14 10:53:41;;;;;;;9.55;8.13;;;;;;;14.74;100.00;101091.59;5015324;28;20033;-74
2022/10/14 10:56:38;;;;;;;11.75;8.75;;;;;;;14.92;100.00;101098.00;5015121;28;20034;-77
2022/10/14 10:59:42;;;;;;;10.05;8.45;;;;;;;15.10;100.00;101093.16;5015368;28;20421;-79
2022/10/14 11:02:10;;;;;;;9.98;8.10;;;;;;;15.21;100.00;101093.13;4954527;28;20154;-79
2022/10/14 11:05:01;;;;;;;10.57;8.70;;;;;;;15.22;100.00;101086.16;4954655;28;20196;-77
2022/10/14 11:14:11;;;;;;;12.40;8.25;;;;;;;15.23;100.00;101077.41;4954919;29;20031;-73
2022/10/14 11:16:51;;;;;;;9.07;7.90;;;;;;;15.22;100.00;101067.94;5084291;23;20136;-76
2022/10/14 11:19:35;;;;;;;11.00;8.45;;;;;;;15.27;100.00;101078.00;5034679;28;20439;-81
2022/10/14 11:22:05;;;;;;;9.18;7.97;;;;;;;15.30;100.00;101069.94;5034424;28;20060;-83